createdAt,value
2023-05-07T00:00:36.169Z,19.45
2023-05-07T00:03:02.986Z,19.45
2023-05-07T00:05:29.825Z,19.33
2023-05-07T00:07:57.838Z,19.49
2023-05-07T00:10:26.400Z,19.46
2023-05-07T00:12:53.065Z,19.26
2023-05-07T00:15:19.613Z,19.24
2023-05-07T00:17:46.178Z,19.33
2023-05-07T00:20:13.217Z,19.28
2023-05-07T00:22:40.143Z,19.35
2023-05-07T00:25:06.952Z,19.31
2023-05-07T00:27:33.519Z,19.32
2023-05-07T00:30:00.007Z,19.44
2023-05-07T00:32:26.697Z,19.54
2023-05-07T00:34:53.319Z,19.49
2023-05-07T00:37:19.780Z,19.55
2023-05-07T00:39:46.323Z,19.25
2023-05-07T00:42:12.833Z,19.51
2023-05-07T00:44:39.350Z,19.52
2023-05-07T00:47:06.035Z,19.45
2023-05-07T00:49:40.330Z,19.44
2023-05-07T00:52:08.044Z,19.29
2023-05-07T00:54:35.275Z,19.36
2023-05-07T00:57:03.836Z,19.48
2023-05-07T00:59:31.854Z,19.27
2023-05-07T01:01:58.548Z,19.34
2023-05-07T01:04:25.716Z,19.45
2023-05-07T01:06:57.491Z,19.49
2023-05-07T01:09:26.087Z,19.37
2023-05-07T01:11:53.489Z,19.52
2023-05-07T01:14:21.469Z,19.47
2023-05-07T01:16:48.893Z,19.42
2023-05-07T01:19:19.207Z,19.50
2023-05-07T01:21:49.934Z,19.20
2023-05-07T01:24:17.030Z,19.22
2023-05-07T01:26:45.011Z,19.08
2023-05-07T01:29:11.654Z,19.03
2023-05-07T01:31:38.680Z,18.88
2023-05-07T01:34:06.114Z,18.66
2023-05-07T01:36:32.882Z,18.62
2023-05-07T01:39:00.124Z,18.46
2023-05-07T01:41:26.902Z,18.30
2023-05-07T01:43:54.514Z,18.24
2023-05-07T01:46:21.514Z,18.32
2023-05-07T01:48:48.427Z,18.09
2023-05-07T01:51:15.011Z,18.27
2023-05-07T01:53:41.754Z,18.26
2023-05-07T01:56:08.564Z,18.09
2023-05-07T01:58:35.146Z,17.91
2023-05-07T02:01:01.815Z,18.12
2023-05-07T02:03:28.705Z,17.92
2023-05-07T02:05:55.244Z,17.92
2023-05-07T02:08:21.947Z,18.26
2023-05-07T02:10:48.506Z,18.37
2023-05-07T02:13:15.176Z,18.43
2023-05-07T02:15:42.090Z,18.43
2023-05-07T02:18:10.197Z,18.49
2023-05-07T02:20:36.725Z,18.30
2023-05-07T02:23:03.354Z,18.47
2023-05-07T02:25:31.115Z,18.57
2023-05-07T02:27:57.824Z,18.51
2023-05-07T02:30:24.795Z,18.57
2023-05-07T02:32:51.428Z,18.60
2023-05-07T02:35:18.458Z,18.51
2023-05-07T02:37:45.094Z,18.30
2023-05-07T02:40:12.952Z,18.29
2023-05-07T02:42:39.656Z,18.35
2023-05-07T02:45:06.769Z,17.74
2023-05-07T02:47:33.286Z,17.90
2023-05-07T02:49:59.954Z,18.23
2023-05-07T02:52:26.446Z,18.33
2023-05-07T02:54:53.213Z,18.44
2023-05-07T02:57:20.201Z,18.26
2023-05-07T02:59:46.825Z,18.35
2023-05-07T03:02:13.577Z,18.14
2023-05-07T03:04:40.573Z,18.21
2023-05-07T03:07:07.436Z,18.00
2023-05-07T03:09:33.920Z,18.30
2023-05-07T03:12:00.725Z,18.28
2023-05-07T03:14:27.276Z,18.23
2023-05-07T03:16:54.160Z,18.27
2023-05-07T03:19:21.063Z,18.22
2023-05-07T03:21:48.338Z,18.07
2023-05-07T03:24:15.050Z,18.19
2023-05-07T03:26:41.912Z,18.26
2023-05-07T03:29:08.856Z,18.18
2023-05-07T03:31:36.144Z,18.31
2023-05-07T03:34:02.864Z,18.35
2023-05-07T03:36:29.719Z,18.18
2023-05-07T03:38:56.797Z,18.29
2023-05-07T03:41:23.868Z,18.30
2023-05-07T03:43:50.884Z,18.40
2023-05-07T03:46:17.987Z,18.35
2023-05-07T03:48:44.990Z,17.94
2023-05-07T03:51:11.959Z,17.92
2023-05-07T03:53:38.798Z,17.95
2023-05-07T03:56:05.733Z,17.87
2023-05-07T03:58:32.616Z,18.02
2023-05-07T04:00:59.552Z,18.24
2023-05-07T04:03:26.191Z,18.24
2023-05-07T04:05:52.804Z,18.28
2023-05-07T04:08:19.468Z,18.35
2023-05-07T04:10:46.086Z,18.20
2023-05-07T04:13:12.906Z,18.06
2023-05-07T04:15:39.485Z,17.78
2023-05-07T04:18:06.381Z,18.24
2023-05-07T04:20:37.306Z,18.27
2023-05-07T04:23:03.941Z,18.33
2023-05-07T04:25:30.482Z,18.32
2023-05-07T04:27:58.162Z,18.16
2023-05-07T04:30:24.755Z,18.58
2023-05-07T04:32:51.743Z,18.51
2023-05-07T04:35:18.418Z,18.22
2023-05-07T04:37:45.179Z,17.94
2023-05-07T04:40:12.218Z,18.23
2023-05-07T04:42:39.153Z,18.35
2023-05-07T04:45:06.315Z,17.99
2023-05-07T04:47:33.478Z,17.86
2023-05-07T04:50:00.008Z,18.13
2023-05-07T04:52:27.612Z,18.29
2023-05-07T04:54:54.375Z,18.34
2023-05-07T04:57:21.147Z,18.55
2023-05-07T04:59:47.677Z,18.63
2023-05-07T05:02:14.234Z,18.45
2023-05-07T05:04:40.761Z,18.18
2023-05-07T05:07:07.250Z,17.97
2023-05-07T05:09:33.844Z,17.80
2023-05-07T05:12:00.759Z,16.78
2023-05-07T05:14:27.312Z,18.19
2023-05-07T05:16:53.788Z,17.82
2023-05-07T05:19:20.417Z,18.25
2023-05-07T05:21:47.056Z,18.21
2023-05-07T05:24:13.618Z,18.47
2023-05-07T05:26:40.151Z,18.57
2023-05-07T05:29:07.388Z,18.71
2023-05-07T05:31:34.679Z,18.60
2023-05-07T05:34:01.280Z,19.06
2023-05-07T05:36:27.804Z,19.26
2023-05-07T05:38:54.538Z,18.73
2023-05-07T05:41:21.619Z,19.04
2023-05-07T05:43:48.370Z,19.13
2023-05-07T05:46:15.804Z,19.22
2023-05-07T05:48:42.561Z,19.12
2023-05-07T05:51:09.099Z,19.50
2023-05-07T05:53:36.261Z,19.55
2023-05-07T05:56:02.833Z,19.17
2023-05-07T05:58:29.460Z,19.30
2023-05-07T06:00:56.044Z,19.32
2023-05-07T06:03:22.600Z,19.06
2023-05-07T06:05:49.320Z,19.38
2023-05-07T06:08:15.909Z,18.76
2023-05-07T06:10:42.413Z,19.20
2023-05-07T06:13:08.941Z,19.02
2023-05-07T06:15:35.535Z,19.04
2023-05-07T06:18:02.163Z,19.16
2023-05-07T06:20:28.706Z,19.40
2023-05-07T06:22:55.210Z,19.08
2023-05-07T06:25:21.697Z,19.27
2023-05-07T06:27:48.287Z,19.40
2023-05-07T06:30:15.068Z,20.01
2023-05-07T06:32:42.015Z,20.43
2023-05-07T06:35:09.215Z,19.87
2023-05-07T06:37:35.930Z,20.52
2023-05-07T06:40:02.649Z,20.11
2023-05-07T06:42:29.143Z,19.91
2023-05-07T06:44:56.126Z,20.37
2023-05-07T06:47:22.727Z,20.92
2023-05-07T06:49:49.333Z,20.94
2023-05-07T06:52:15.821Z,21.22
2023-05-07T06:54:42.411Z,21.34
2023-05-07T06:57:09.048Z,20.33
2023-05-07T06:59:35.878Z,20.64
2023-05-07T07:02:02.492Z,20.86
2023-05-07T07:04:29.397Z,20.56
2023-05-07T07:06:57.618Z,21.16
2023-05-07T07:09:24.255Z,20.94
2023-05-07T07:11:50.775Z,21.62
2023-05-07T07:14:17.348Z,21.24
2023-05-07T07:16:43.880Z,21.41
2023-05-07T07:19:10.428Z,21.31
2023-05-07T07:21:36.947Z,20.99
2023-05-07T07:24:03.924Z,20.87
2023-05-07T07:26:30.806Z,21.00
2023-05-07T07:28:57.458Z,21.09
2023-05-07T07:31:24.001Z,20.96
2023-05-07T07:33:53.081Z,20.54
2023-05-07T07:36:19.965Z,20.69
2023-05-07T07:38:46.543Z,21.02
2023-05-07T07:41:13.096Z,21.32
2023-05-07T07:43:39.684Z,21.25
2023-05-07T07:46:06.323Z,20.50
2023-05-07T07:48:32.847Z,21.20
2023-05-07T07:50:59.385Z,21.03
2023-05-07T07:53:26.281Z,21.51
2023-05-07T07:55:54.462Z,21.63
2023-05-07T07:58:25.867Z,21.14
2023-05-07T08:00:52.647Z,21.28
2023-05-07T08:03:20.796Z,21.43
2023-05-07T08:05:47.563Z,21.58
2023-05-07T08:08:14.253Z,22.02
2023-05-07T08:10:40.859Z,22.29
2023-05-07T08:13:07.776Z,22.76
2023-05-07T08:15:34.454Z,22.95
2023-05-07T08:18:04.073Z,23.44
2023-05-07T08:20:30.753Z,23.55
2023-05-07T08:22:57.559Z,24.03
2023-05-07T08:25:24.308Z,24.76
2023-05-07T08:27:50.908Z,24.65
2023-05-07T08:30:17.453Z,24.58
2023-05-07T08:32:44.085Z,25.32
2023-05-07T08:35:10.913Z,25.18
2023-05-07T08:37:37.452Z,26.00
2023-05-07T08:40:06.510Z,26.59
2023-05-07T08:42:36.896Z,24.78
2023-05-07T08:45:06.658Z,25.99
2023-05-07T08:47:40.364Z,25.93
2023-05-07T08:50:07.663Z,25.52
2023-05-07T08:52:34.162Z,26.57
2023-05-07T08:55:01.304Z,27.58
2023-05-07T08:57:27.805Z,27.75
2023-05-07T08:59:54.347Z,28.10
2023-05-07T09:02:21.245Z,27.99
2023-05-07T09:04:47.871Z,26.95
2023-05-07T09:07:14.417Z,27.86
2023-05-07T09:09:40.955Z,28.67
2023-05-07T09:12:07.686Z,29.35
2023-05-07T09:14:34.505Z,28.21
2023-05-07T09:17:01.208Z,27.44
2023-05-07T09:19:28.431Z,29.22
2023-05-07T09:22:05.429Z,32.79
2023-05-07T09:24:36.079Z,35.75
2023-05-07T09:27:03.361Z,37.46
2023-05-07T09:29:31.165Z,36.29
2023-05-07T09:31:58.433Z,34.81
2023-05-07T09:34:24.972Z,35.47
2023-05-07T09:36:51.563Z,36.80
2023-05-07T09:39:18.091Z,38.66
2023-05-07T09:41:46.317Z,37.79
2023-05-07T09:44:14.129Z,37.07
2023-05-07T09:46:43.602Z,35.92
2023-05-07T09:49:15.256Z,34.78
2023-05-07T09:51:50.306Z,34.24
2023-05-07T09:54:17.762Z,33.64
2023-05-07T09:56:45.993Z,33.10
2023-05-07T09:59:17.232Z,31.68
2023-05-07T10:01:45.065Z,33.81
2023-05-07T10:04:12.168Z,35.94
2023-05-07T10:06:39.144Z,36.83
2023-05-07T10:09:06.855Z,36.88
2023-05-07T10:11:35.032Z,38.24
2023-05-07T10:14:04.975Z,39.32
2023-05-07T10:16:37.367Z,40.70
2023-05-07T10:19:10.952Z,43.35
2023-05-07T10:21:39.042Z,44.32
2023-05-07T10:24:11.457Z,45.96
2023-05-07T10:26:38.572Z,44.64
2023-05-07T10:29:11.947Z,41.29
2023-05-07T10:31:38.897Z,42.21
2023-05-07T10:34:14.987Z,42.79
2023-05-07T10:36:41.819Z,41.87
2023-05-07T10:39:08.992Z,39.95
2023-05-07T10:41:35.532Z,38.92
2023-05-07T10:44:03.201Z,37.18
2023-05-07T10:46:30.066Z,35.72
2023-05-07T10:49:03.782Z,34.43
2023-05-07T10:51:34.033Z,34.61
2023-05-07T10:54:12.903Z,35.19
2023-05-07T10:56:48.597Z,35.87
2023-05-07T10:59:36.856Z,39.92
2023-05-07T11:02:05.352Z,39.33
2023-05-07T11:04:35.746Z,43.42
2023-05-07T11:07:12.909Z,44.99
2023-05-07T11:09:54.546Z,46.38
2023-05-07T11:12:36.836Z,42.46
2023-05-07T11:15:13.305Z,41.93
2023-05-07T11:18:00.502Z,42.06
2023-05-07T11:20:53.321Z,41.55
2023-05-07T11:23:35.310Z,39.35
2023-05-07T11:26:01.838Z,37.26
2023-05-07T11:28:31.602Z,36.31
2023-05-07T11:30:58.433Z,37.30
2023-05-07T11:33:27.880Z,39.59
2023-05-07T11:35:54.600Z,39.22
2023-05-07T11:38:21.255Z,35.88
2023-05-07T11:40:52.082Z,35.39
2023-05-07T11:43:18.850Z,34.08
2023-05-07T11:45:49.192Z,34.19
2023-05-07T11:48:17.034Z,34.13
2023-05-07T11:50:53.819Z,33.62
2023-05-07T11:53:21.434Z,33.83
2023-05-07T11:55:47.961Z,34.13
2023-05-07T11:58:21.820Z,32.58
2023-05-07T12:00:52.255Z,31.15
2023-05-07T12:03:19.140Z,31.03
2023-05-07T12:05:46.773Z,31.13
2023-05-07T12:08:20.403Z,30.89
2023-05-07T12:10:48.775Z,30.84
2023-05-07T12:13:23.083Z,30.49
2023-05-07T12:16:08.207Z,29.15
2023-05-07T12:18:38.157Z,29.33
2023-05-07T12:21:05.646Z,29.23
2023-05-07T12:23:32.276Z,29.80
2023-05-07T12:26:00.350Z,30.21
2023-05-07T12:28:27.056Z,30.58
2023-05-07T12:30:53.863Z,31.19
2023-05-07T12:33:25.571Z,31.23
2023-05-07T12:35:54.655Z,29.75
2023-05-07T12:38:21.731Z,30.71
2023-05-07T12:40:52.085Z,30.58
2023-05-07T12:43:22.603Z,31.79
2023-05-07T12:45:51.302Z,30.83
2023-05-07T12:48:18.521Z,30.16
2023-05-07T12:50:45.111Z,29.68
2023-05-07T12:53:13.384Z,29.34
2023-05-07T12:55:48.404Z,30.04
2023-05-07T12:58:20.119Z,28.92
2023-05-07T13:00:49.428Z,28.57
2023-05-07T13:03:27.549Z,28.12
2023-05-07T13:05:58.937Z,28.46
2023-05-07T13:08:27.995Z,28.46
2023-05-07T13:10:54.684Z,27.57
2023-05-07T13:13:22.102Z,27.54
2023-05-07T13:15:49.225Z,27.25
2023-05-07T13:18:16.231Z,26.44
2023-05-07T13:20:42.876Z,25.81
2023-05-07T13:23:09.596Z,25.73
2023-05-07T13:25:37.136Z,25.79
2023-05-07T13:28:10.842Z,26.39
2023-05-07T13:30:38.189Z,25.82
2023-05-07T13:33:05.437Z,25.17
2023-05-07T13:35:32.165Z,25.33
2023-05-07T13:37:59.131Z,25.06
2023-05-07T13:40:26.169Z,24.99
2023-05-07T13:42:52.885Z,24.85
2023-05-07T13:45:19.851Z,24.84
2023-05-07T13:47:47.685Z,24.51
2023-05-07T13:50:14.645Z,25.03
2023-05-07T13:52:51.262Z,24.85
2023-05-07T13:55:19.158Z,24.84
2023-05-07T13:57:46.011Z,24.77
2023-05-07T14:00:13.737Z,25.00
2023-05-07T14:02:41.394Z,25.35
2023-05-07T14:05:08.603Z,24.99
2023-05-07T14:07:35.292Z,24.51
2023-05-07T14:10:01.980Z,24.92
2023-05-07T14:12:28.587Z,24.51
2023-05-07T14:14:55.148Z,24.82
2023-05-07T14:17:21.825Z,25.07
2023-05-07T14:19:48.545Z,25.23
2023-05-07T14:22:16.386Z,24.73
2023-05-07T14:24:43.881Z,24.56
2023-05-07T14:27:10.622Z,24.45
2023-05-07T14:29:37.274Z,24.74
2023-05-07T14:32:04.389Z,24.60
2023-05-07T14:34:30.944Z,24.03
2023-05-07T14:36:57.507Z,23.73
2023-05-07T14:39:24.033Z,23.75
2023-05-07T14:41:50.762Z,23.56
2023-05-07T14:44:17.328Z,23.34
2023-05-07T14:46:44.161Z,22.97
2023-05-07T14:49:17.836Z,24.10
2023-05-07T14:51:46.277Z,23.81
2023-05-07T14:54:16.424Z,24.35
2023-05-07T14:56:43.228Z,24.24
2023-05-07T14:59:10.002Z,24.56
2023-05-07T15:01:37.403Z,25.03
2023-05-07T15:04:08.513Z,24.57
2023-05-07T15:06:35.124Z,24.79
2023-05-07T15:09:01.780Z,24.95
2023-05-07T15:11:28.337Z,25.08
2023-05-07T15:13:54.970Z,25.09
2023-05-07T15:16:21.740Z,25.07
2023-05-07T15:18:48.398Z,25.48
2023-05-07T15:21:17.753Z,25.42
2023-05-07T15:23:45.447Z,25.36
2023-05-07T15:26:12.046Z,25.58
2023-05-07T15:28:40.450Z,25.82
2023-05-07T15:31:07.989Z,25.18
2023-05-07T15:33:34.755Z,25.11
2023-05-07T15:36:01.648Z,25.05
2023-05-07T15:38:28.255Z,25.27
2023-05-07T15:40:55.521Z,25.05
2023-05-07T15:43:22.559Z,25.03
2023-05-07T15:45:49.140Z,25.45
2023-05-07T15:48:15.755Z,25.24
2023-05-07T15:50:42.884Z,25.14
2023-05-07T15:53:10.439Z,25.11
2023-05-07T15:55:37.408Z,25.32
2023-05-07T15:58:05.972Z,25.39
2023-05-07T16:00:32.843Z,25.47
2023-05-07T16:02:59.386Z,25.11
2023-05-07T16:05:25.964Z,25.10
2023-05-07T16:07:52.934Z,25.13
2023-05-07T16:10:19.502Z,24.99
2023-05-07T16:12:46.098Z,25.07
2023-05-07T16:15:12.919Z,24.50
2023-05-07T16:17:39.739Z,25.00
2023-05-07T16:20:09.117Z,24.88
2023-05-07T16:22:36.745Z,24.69
2023-05-07T16:25:04.820Z,24.65
2023-05-07T16:27:31.362Z,24.40
2023-05-07T16:29:58.147Z,24.20
2023-05-07T16:32:25.121Z,24.21
2023-05-07T16:34:51.777Z,24.31
2023-05-07T16:37:18.438Z,23.87
2023-05-07T16:39:45.001Z,24.23
2023-05-07T16:42:11.493Z,23.92
2023-05-07T16:44:38.027Z,23.77
2023-05-07T16:47:04.577Z,24.08
2023-05-07T16:49:31.374Z,24.07
2023-05-07T16:51:57.907Z,23.93
2023-05-07T16:54:24.478Z,24.17
2023-05-07T16:56:51.104Z,23.73
2023-05-07T16:59:18.169Z,23.95
2023-05-07T17:01:45.524Z,23.23
2023-05-07T17:04:12.431Z,23.51
2023-05-07T17:06:39.123Z,23.41
2023-05-07T17:09:05.734Z,23.30
2023-05-07T17:11:34.030Z,23.59
2023-05-07T17:14:01.718Z,23.12
2023-05-07T17:16:29.513Z,23.75
2023-05-07T17:18:58.968Z,23.76
2023-05-07T17:21:25.580Z,23.72
2023-05-07T17:23:52.316Z,23.92
2023-05-07T17:26:18.886Z,23.94
2023-05-07T17:28:45.363Z,23.74
2023-05-07T17:31:12.000Z,23.15
2023-05-07T17:33:38.665Z,23.93
2023-05-07T17:36:05.971Z,23.87
2023-05-07T17:38:32.558Z,23.56
2023-05-07T17:40:59.195Z,23.86
2023-05-07T17:43:26.181Z,23.86
2023-05-07T17:45:52.781Z,23.71
2023-05-07T17:48:19.400Z,23.76
2023-05-07T17:50:46.175Z,23.31
2023-05-07T17:53:12.739Z,23.21
2023-05-07T17:55:43.904Z,23.12
2023-05-07T17:58:13.668Z,22.45
2023-05-07T18:00:40.261Z,22.31
2023-05-07T18:03:07.052Z,22.39
2023-05-07T18:05:36.696Z,22.80
2023-05-07T18:08:03.497Z,22.82
2023-05-07T18:10:30.038Z,22.26
2023-05-07T18:12:56.635Z,21.94
2023-05-07T18:15:23.284Z,21.57
2023-05-07T18:17:49.804Z,21.61
2023-05-07T18:20:16.677Z,21.92
2023-05-07T18:22:43.330Z,21.60
2023-05-07T18:25:10.138Z,21.92
2023-05-07T18:27:36.717Z,21.90
2023-05-07T18:30:04.119Z,21.76
2023-05-07T18:32:30.709Z,21.83
2023-05-07T18:34:57.491Z,21.80
2023-05-07T18:37:26.614Z,21.25
2023-05-07T18:39:53.425Z,21.94
2023-05-07T18:42:20.238Z,21.98
2023-05-07T18:44:47.153Z,21.71
2023-05-07T18:47:13.924Z,22.12
2023-05-07T18:49:40.534Z,21.97
2023-05-07T18:52:07.214Z,21.95
2023-05-07T18:54:33.851Z,21.94
2023-05-07T18:57:00.416Z,21.99
2023-05-07T18:59:26.999Z,21.70
2023-05-07T19:01:53.656Z,21.56
2023-05-07T19:04:20.333Z,21.30
2023-05-07T19:06:47.236Z,21.66
2023-05-07T19:09:14.486Z,21.28
2023-05-07T19:11:41.154Z,21.40
2023-05-07T19:14:07.849Z,21.40
2023-05-07T19:16:34.585Z,21.04
2023-05-07T19:19:01.104Z,21.32
2023-05-07T19:21:28.680Z,21.44
2023-05-07T19:23:57.346Z,21.57
2023-05-07T19:26:24.741Z,20.85
2023-05-07T19:29:06.723Z,21.15
2023-05-07T19:31:38.770Z,21.22
2023-05-07T19:34:05.432Z,21.01
2023-05-07T19:36:34.350Z,21.22
2023-05-07T19:39:01.046Z,21.03
2023-05-07T19:41:28.569Z,20.93
2023-05-07T19:43:55.108Z,20.72
2023-05-07T19:46:21.964Z,20.60
2023-05-07T19:48:48.772Z,20.54
2023-05-07T19:51:15.444Z,20.35
2023-05-07T19:53:41.992Z,20.16
2023-05-07T19:56:10.636Z,20.10
2023-05-07T19:58:37.862Z,20.23
2023-05-07T20:01:05.276Z,20.37
2023-05-07T20:03:33.189Z,20.14
2023-05-07T20:05:59.991Z,20.37
2023-05-07T20:08:27.597Z,20.30
2023-05-07T20:10:54.270Z,20.26
2023-05-07T20:13:20.822Z,20.47
2023-05-07T20:15:47.746Z,20.55
2023-05-07T20:18:15.942Z,20.35
2023-05-07T20:20:42.543Z,20.13
2023-05-07T20:23:09.198Z,20.19
2023-05-07T20:25:35.932Z,19.77
2023-05-07T20:28:02.882Z,19.24
2023-05-07T20:30:29.776Z,19.24
2023-05-07T20:32:56.467Z,20.01
2023-05-07T20:35:23.406Z,19.58
2023-05-07T20:37:49.975Z,19.21
2023-05-07T20:40:16.661Z,19.94
2023-05-07T20:42:43.263Z,19.97
2023-05-07T20:45:10.646Z,19.76
2023-05-07T20:47:37.228Z,19.72
2023-05-07T20:50:04.048Z,20.09
2023-05-07T20:52:30.761Z,19.99
2023-05-07T20:54:57.379Z,19.68
2023-05-07T20:57:24.160Z,19.77
2023-05-07T20:59:50.822Z,19.57
2023-05-07T21:02:17.355Z,19.70
2023-05-07T21:04:44.111Z,19.62
2023-05-07T21:07:10.788Z,19.14
2023-05-07T21:09:37.465Z,19.59
2023-05-07T21:12:04.254Z,19.90
2023-05-07T21:14:32.262Z,19.87
2023-05-07T21:17:00.386Z,20.06
2023-05-07T21:19:27.303Z,19.72
2023-05-07T21:21:57.639Z,19.99
2023-05-07T21:24:24.953Z,19.86
2023-05-07T21:26:55.804Z,20.09
2023-05-07T21:29:23.700Z,19.94
2023-05-07T21:31:50.665Z,20.01
2023-05-07T21:34:17.244Z,19.81
2023-05-07T21:36:43.849Z,19.77
2023-05-07T21:39:11.017Z,19.68
2023-05-07T21:41:37.753Z,19.38
2023-05-07T21:44:05.471Z,19.22
2023-05-07T21:46:33.020Z,19.63
2023-05-07T21:48:59.587Z,19.58
2023-05-07T21:51:26.248Z,19.69
2023-05-07T21:53:52.786Z,19.38
2023-05-07T21:56:19.551Z,19.46
2023-05-07T21:58:46.056Z,19.57
2023-05-07T22:01:12.954Z,19.58
2023-05-07T22:03:40.461Z,19.60
2023-05-07T22:06:07.227Z,19.58
2023-05-07T22:08:33.709Z,19.77
2023-05-07T22:11:00.313Z,19.57
2023-05-07T22:13:27.210Z,19.40
2023-05-07T22:15:58.102Z,19.62
2023-05-07T22:18:26.152Z,19.94
2023-05-07T22:20:52.811Z,19.48
2023-05-07T22:23:19.660Z,19.89
2023-05-07T22:25:46.182Z,20.02
2023-05-07T22:28:12.997Z,19.89
2023-05-07T22:30:39.651Z,19.47
2023-05-07T22:33:06.364Z,19.49
2023-05-07T22:35:32.973Z,19.55
2023-05-07T22:37:59.565Z,19.45
2023-05-07T22:40:26.129Z,19.69
2023-05-07T22:42:52.787Z,19.63
2023-05-07T22:45:19.282Z,19.58
2023-05-07T22:47:45.848Z,19.63
2023-05-07T22:50:12.859Z,19.44
2023-05-07T22:52:39.632Z,19.22
2023-05-07T22:55:06.714Z,19.38
2023-05-07T22:57:33.228Z,19.48
2023-05-07T22:59:59.722Z,19.20
2023-05-07T23:02:28.860Z,19.11
2023-05-07T23:04:58.708Z,19.09
2023-05-07T23:07:25.218Z,19.06
2023-05-07T23:09:52.293Z,19.02
2023-05-07T23:12:19.008Z,19.21
2023-05-07T23:14:45.782Z,18.65
2023-05-07T23:17:12.376Z,18.39
2023-05-07T23:19:39.098Z,18.61
2023-05-07T23:22:05.724Z,18.76
2023-05-07T23:24:32.593Z,19.16
2023-05-07T23:26:59.104Z,19.14
2023-05-07T23:29:26.179Z,19.03
2023-05-07T23:31:52.854Z,18.81
2023-05-07T23:34:23.978Z,19.21
2023-05-07T23:36:51.344Z,18.22
2023-05-07T23:39:18.618Z,19.03
2023-05-07T23:41:45.390Z,18.81
2023-05-07T23:44:12.071Z,18.94
2023-05-07T23:46:38.786Z,19.00
2023-05-07T23:49:05.444Z,18.87
2023-05-07T23:51:32.111Z,19.01
2023-05-07T23:53:58.631Z,19.06
2023-05-07T23:56:25.651Z,18.99
2023-05-07T23:58:53.556Z,19.20
